createdAt,value
2016-10-09T00:03:04.823Z,1019.18
2016-10-09T00:08:01.215Z,1019.13
2016-10-09T00:12:58.604Z,1019.14
2016-10-09T00:17:54.742Z,1019.16
2016-10-09T00:22:51.225Z,1019.20
2016-10-09T00:27:47.676Z,1019.22
2016-10-09T00:32:44.060Z,1019.20
2016-10-09T00:37:41.808Z,1019.17
2016-10-09T00:42:37.932Z,1019.12
2016-10-09T00:47:34.411Z,1019.10
2016-10-09T00:52:30.861Z,1019.14
2016-10-09T00:57:27.247Z,1019.09
2016-10-09T01:02:24.314Z,1019.14
2016-10-09T01:07:21.354Z,1019.11
2016-10-09T01:12:17.587Z,1019.10
2016-10-09T01:17:14.124Z,1019.08
2016-10-09T01:22:10.451Z,1019.11
2016-10-09T01:27:07.033Z,1019.04
2016-10-09T01:32:03.479Z,1018.94
2016-10-09T01:36:59.741Z,1018.97
2016-10-09T01:41:56.934Z,1018.92
2016-10-09T01:46:53.379Z,1018.92
2016-10-09T01:51:51.098Z,1018.91
2016-10-09T01:56:47.174Z,1018.85
2016-10-09T02:01:43.679Z,1018.85
2016-10-09T02:06:40.090Z,1018.76
2016-10-09T02:11:36.449Z,1018.85
2016-10-09T02:16:32.882Z,1018.87
2016-10-09T02:21:29.233Z,1018.86
2016-10-09T02:26:25.644Z,1018.85
2016-10-09T02:31:22.040Z,1018.86
2016-10-09T02:36:18.455Z,1018.83
2016-10-09T02:41:14.795Z,1018.73
2016-10-09T02:46:11.329Z,1018.73
2016-10-09T02:51:08.174Z,1018.76
2016-10-09T02:56:04.565Z,1018.73
2016-10-09T03:01:01.116Z,1018.71
2016-10-09T03:05:57.912Z,1018.67
2016-10-09T03:10:54.635Z,1018.70
2016-10-09T03:15:51.189Z,1018.77
2016-10-09T03:20:47.560Z,1018.80
2016-10-09T03:25:43.539Z,1018.70
2016-10-09T03:30:40.288Z,1018.71
2016-10-09T03:35:36.610Z,1018.72
2016-10-09T03:40:32.681Z,1018.60
2016-10-09T03:45:29.091Z,1018.68
2016-10-09T03:50:25.637Z,1018.65
2016-10-09T03:55:22.454Z,1018.64
2016-10-09T04:00:18.905Z,1018.66
2016-10-09T04:05:15.352Z,1018.65
2016-10-09T04:10:12.332Z,1018.65
2016-10-09T04:15:09.085Z,1018.62
2016-10-09T04:20:05.690Z,1018.62
2016-10-09T04:25:02.167Z,1018.67
2016-10-09T04:29:58.563Z,1018.73
2016-10-09T04:34:55.120Z,1018.58
2016-10-09T04:39:52.057Z,1018.67
2016-10-09T04:44:48.560Z,1018.65
2016-10-09T04:49:45.937Z,1018.57
2016-10-09T04:54:42.104Z,1018.62
2016-10-09T04:59:39.559Z,1018.54
2016-10-09T05:04:35.632Z,1018.60
2016-10-09T05:09:32.340Z,1018.62
2016-10-09T05:14:28.885Z,1018.68
2016-10-09T05:19:25.281Z,1018.64
2016-10-09T05:24:21.696Z,1018.62
2016-10-09T05:29:18.139Z,1018.69
2016-10-09T05:34:14.480Z,1018.76
2016-10-09T05:39:10.693Z,1018.74
2016-10-09T05:44:07.447Z,1018.67
2016-10-09T05:49:03.579Z,1018.80
2016-10-09T05:53:59.837Z,1018.80
2016-10-09T05:58:57.035Z,1018.75
2016-10-09T06:03:53.450Z,1018.86
2016-10-09T06:08:49.982Z,1018.77
2016-10-09T06:13:46.551Z,1018.74
2016-10-09T06:18:42.936Z,1018.86
2016-10-09T06:23:39.506Z,1018.84
2016-10-09T06:28:36.993Z,1018.88
2016-10-09T06:33:33.290Z,1018.78
2016-10-09T06:38:29.909Z,1018.95
2016-10-09T06:43:26.570Z,1019.05
2016-10-09T06:48:23.267Z,1019.03
2016-10-09T06:53:19.802Z,1018.97
2016-10-09T06:58:16.644Z,1018.98
2016-10-09T07:03:13.093Z,1018.97
2016-10-09T07:08:09.690Z,1019.10
2016-10-09T07:13:06.312Z,1019.12
2016-10-09T07:18:02.622Z,1019.16
2016-10-09T07:22:59.564Z,1019.11
2016-10-09T07:27:56.357Z,1019.11
2016-10-09T07:32:52.880Z,1019.06
2016-10-09T07:37:49.358Z,1019.05
2016-10-09T07:42:46.041Z,1019.02
2016-10-09T07:47:42.458Z,1018.98
2016-10-09T07:52:39.549Z,1019.00
2016-10-09T07:57:36.832Z,1018.98
2016-10-09T08:02:33.439Z,1019.08
2016-10-09T08:07:30.013Z,1019.00
2016-10-09T08:12:26.473Z,1019.07
2016-10-09T08:17:24.062Z,1019.10
2016-10-09T08:22:20.702Z,1019.04
2016-10-09T08:27:17.747Z,1019.11
2016-10-09T08:32:15.874Z,1019.06
2016-10-09T08:37:12.341Z,1019.11
2016-10-09T08:42:09.386Z,1019.03
2016-10-09T08:47:06.015Z,1019.08
2016-10-09T08:52:02.592Z,1019.03
2016-10-09T08:56:59.056Z,1019.03
2016-10-09T09:01:55.546Z,1019.07
2016-10-09T09:06:52.477Z,1019.15
2016-10-09T09:11:49.144Z,1019.08
2016-10-09T09:16:46.060Z,1018.98
2016-10-09T09:21:42.650Z,1019.08
2016-10-09T09:26:38.620Z,1019.11
2016-10-09T09:31:34.955Z,1019.02
2016-10-09T09:36:31.252Z,1019.02
2016-10-09T09:41:27.622Z,1018.98
2016-10-09T09:46:23.948Z,1019.00
2016-10-09T09:51:20.667Z,1018.93
2016-10-09T09:56:17.562Z,1019.00
2016-10-09T10:01:14.413Z,1018.86
2016-10-09T10:06:12.292Z,1018.88
2016-10-09T10:11:09.052Z,1018.78
2016-10-09T10:16:06.090Z,1018.76
2016-10-09T10:21:02.559Z,1018.84
2016-10-09T10:25:58.788Z,1018.86
2016-10-09T10:30:55.154Z,1018.90
2016-10-09T10:35:52.117Z,1018.82
2016-10-09T10:40:48.661Z,1018.92
2016-10-09T10:45:44.883Z,1018.86
2016-10-09T10:50:41.765Z,1018.95
2016-10-09T10:55:39.478Z,1018.81
2016-10-09T11:00:36.876Z,1018.73
2016-10-09T11:05:35.678Z,1018.66
2016-10-09T11:10:32.900Z,1018.61
2016-10-09T11:15:31.229Z,1018.51
2016-10-09T11:20:27.535Z,1018.55
2016-10-09T11:25:25.648Z,1018.60
2016-10-09T11:30:22.346Z,1018.36
2016-10-09T11:35:18.139Z,1018.47
2016-10-09T11:40:14.146Z,1018.39
2016-10-09T11:45:10.420Z,1018.35
2016-10-09T11:50:06.400Z,1018.29
2016-10-09T11:55:02.354Z,1018.35
2016-10-09T11:59:58.749Z,1018.32
2016-10-09T12:04:54.960Z,1018.36
2016-10-09T12:09:51.694Z,1018.28
2016-10-09T12:14:48.160Z,1018.25
2016-10-09T12:19:44.781Z,1018.22
2016-10-09T12:24:41.329Z,1018.13
2016-10-09T12:29:37.705Z,1018.14
2016-10-09T12:34:34.305Z,1018.11
2016-10-09T12:39:31.267Z,1018.05
2016-10-09T12:44:28.341Z,1018.04
2016-10-09T12:49:25.188Z,1017.99
2016-10-09T12:54:21.736Z,1017.99
2016-10-09T12:59:18.293Z,1017.99
2016-10-09T13:04:14.382Z,1018.05
2016-10-09T13:09:12.466Z,1017.94
2016-10-09T13:14:08.730Z,1017.95
2016-10-09T13:19:08.313Z,1017.89
2016-10-09T13:24:04.111Z,1017.90
2016-10-09T13:29:00.418Z,1017.94
2016-10-09T13:33:57.384Z,1017.93
2016-10-09T13:38:54.042Z,1017.87
2016-10-09T13:43:50.554Z,1017.86
2016-10-09T13:48:47.666Z,1017.85
2016-10-09T13:53:44.473Z,1017.83
2016-10-09T13:58:40.905Z,1017.79
2016-10-09T14:03:37.589Z,1017.86
2016-10-09T14:08:34.344Z,1017.80
2016-10-09T14:13:30.829Z,1017.85
2016-10-09T14:18:27.334Z,1017.81
2016-10-09T14:23:24.398Z,1017.76
2016-10-09T14:28:21.879Z,1017.76
2016-10-09T14:33:17.988Z,1017.71
2016-10-09T14:38:15.177Z,1017.68
2016-10-09T14:43:11.741Z,1017.64
2016-10-09T14:48:08.260Z,1017.70
2016-10-09T14:53:04.647Z,1017.64
2016-10-09T14:58:01.448Z,1017.65
2016-10-09T15:02:57.911Z,1017.60
2016-10-09T15:07:54.456Z,1017.66
2016-10-09T15:12:50.857Z,1017.62
2016-10-09T15:17:47.284Z,1017.67
2016-10-09T15:22:43.878Z,1017.66
2016-10-09T15:27:40.324Z,1017.68
2016-10-09T15:32:36.811Z,1017.63
2016-10-09T15:37:33.257Z,1017.65
2016-10-09T15:42:29.825Z,1017.60
2016-10-09T15:47:26.185Z,1017.71
2016-10-09T15:52:22.915Z,1017.57
2016-10-09T15:57:19.263Z,1017.65
2016-10-09T16:02:15.810Z,1017.54
2016-10-09T16:07:12.226Z,1017.56
2016-10-09T16:12:08.677Z,1017.64
2016-10-09T16:17:06.368Z,1017.67
2016-10-09T16:22:02.911Z,1017.66
2016-10-09T16:26:59.226Z,1017.58
2016-10-09T16:31:55.716Z,1017.73
2016-10-09T16:36:52.225Z,1017.69
2016-10-09T16:41:48.746Z,1017.71
2016-10-09T16:46:45.252Z,1017.70
2016-10-09T16:51:42.816Z,1017.72
2016-10-09T16:56:39.188Z,1017.76
2016-10-09T17:01:36.014Z,1017.78
2016-10-09T17:06:32.510Z,1017.79
2016-10-09T17:11:29.634Z,1017.83
2016-10-09T17:16:26.022Z,1017.92
2016-10-09T17:21:22.453Z,1017.87
2016-10-09T17:26:19.011Z,1017.89
2016-10-09T17:31:15.990Z,1017.85
2016-10-09T17:36:12.566Z,1017.88
2016-10-09T17:41:09.020Z,1017.89
2016-10-09T17:46:05.725Z,1017.86
2016-10-09T17:51:02.202Z,1017.95
2016-10-09T17:55:58.575Z,1017.91
2016-10-09T18:00:55.446Z,1018.01
2016-10-09T18:05:51.660Z,1017.96
2016-10-09T18:10:48.272Z,1017.95
2016-10-09T18:15:44.620Z,1018.08
2016-10-09T18:20:41.156Z,1018.11
2016-10-09T18:25:37.365Z,1018.11
2016-10-09T18:30:33.835Z,1018.15
2016-10-09T18:35:30.103Z,1018.13
2016-10-09T18:40:26.872Z,1018.15
2016-10-09T18:45:24.070Z,1018.12
2016-10-09T18:50:20.999Z,1018.15
2016-10-09T18:55:18.277Z,1018.21
2016-10-09T19:00:15.389Z,1018.16
2016-10-09T19:05:11.413Z,1018.15
2016-10-09T19:10:10.577Z,1018.13
2016-10-09T19:15:06.858Z,1018.16
2016-10-09T19:20:04.251Z,1018.12
2016-10-09T19:25:03.148Z,1018.17
2016-10-09T19:29:59.242Z,1018.14
2016-10-09T19:34:55.702Z,1018.11
2016-10-09T19:39:54.578Z,1018.12
2016-10-09T19:44:50.654Z,1018.04
2016-10-09T19:49:47.103Z,1018.05
2016-10-09T19:54:43.488Z,1018.09
2016-10-09T19:59:39.772Z,1018.06
2016-10-09T20:04:36.220Z,1018.06
2016-10-09T20:09:32.642Z,1018.16
2016-10-09T20:14:29.073Z,1018.26
2016-10-09T20:19:26.714Z,1018.27
2016-10-09T20:24:23.165Z,1018.26
2016-10-09T20:29:19.758Z,1018.23
2016-10-09T20:34:16.340Z,1018.30
2016-10-09T20:39:12.727Z,1018.26
2016-10-09T20:44:09.249Z,1018.34
2016-10-09T20:49:05.765Z,1018.27
2016-10-09T20:54:02.059Z,1018.22
2016-10-09T20:58:58.470Z,1018.16
2016-10-09T21:03:55.338Z,1018.23
2016-10-09T21:08:52.958Z,1018.28
2016-10-09T21:13:49.764Z,1018.18
2016-10-09T21:18:46.375Z,1018.19
2016-10-09T21:23:42.770Z,1018.26
2016-10-09T21:28:39.194Z,1018.31
2016-10-09T21:33:35.591Z,1018.29
2016-10-09T21:38:32.038Z,1018.33
2016-10-09T21:43:28.864Z,1018.39
2016-10-09T21:48:25.491Z,1018.35
2016-10-09T21:53:22.655Z,1018.29
2016-10-09T21:58:20.224Z,1018.33
2016-10-09T22:03:16.675Z,1018.39
2016-10-09T22:08:13.141Z,1018.26
2016-10-09T22:13:09.472Z,1018.27
2016-10-09T22:18:06.072Z,1018.19
2016-10-09T22:23:02.899Z,1018.15
2016-10-09T22:27:59.548Z,1018.26
2016-10-09T22:32:55.894Z,1018.29
2016-10-09T22:37:52.271Z,1018.30
2016-10-09T22:42:49.014Z,1018.30
2016-10-09T22:47:45.141Z,1018.32
2016-10-09T22:52:41.486Z,1018.37
2016-10-09T22:57:38.026Z,1018.29
2016-10-09T23:02:34.157Z,1018.31
2016-10-09T23:07:30.711Z,1018.29
2016-10-09T23:12:27.493Z,1018.34
2016-10-09T23:17:24.006Z,1018.26
2016-10-09T23:22:20.724Z,1018.30
2016-10-09T23:27:17.859Z,1018.27
2016-10-09T23:32:14.259Z,1018.18
2016-10-09T23:37:11.133Z,1018.20
2016-10-09T23:42:07.628Z,1018.22
2016-10-09T23:47:04.311Z,1018.35
2016-10-09T23:52:01.265Z,1018.34
2016-10-09T23:56:57.958Z,1018.34
